sensor_id;sensor_type;location;lat;lon;timestamp;P1;durP1;ratioP1;P2;durP2;ratioP2
56343;SDS011;42245;42.058;24.700;2023-03-01T00:00:36;12.52;;;9.38;;
56343;SDS011;42245;42.058;24.700;2023-03-01T00:03:02;18.23;;;12.30;;
56343;SDS011;42245;42.058;24.700;2023-03-01T00:05:27;16.00;;;11.17;;
56343;SDS011;42245;42.058;24.700;2023-03-01T00:07:53;14.57;;;11.07;;
56343;SDS011;42245;42.058;24.700;2023-03-01T00:10:18;14.60;;;11.20;;
56343;SDS011;42245;42.058;24.700;2023-03-01T00:12:44;16.03;;;12.20;;
56343;SDS011;42245;42.058;24.700;2023-03-01T00:15:09;13.87;;;11.17;;
56343;SDS011;42245;42.058;24.700;2023-03-01T00:17:35;15.77;;;11.60;;
56343;SDS011;42245;42.058;24.700;2023-03-01T00:20:00;17.27;;;11.37;;
56343;SDS011;42245;42.058;24.700;2023-03-01T00:22:26;12.63;;;9.47;;
56343;SDS011;42245;42.058;24.700;2023-03-01T00:24:53;13.10;;;10.30;;
56343;SDS011;42245;42.058;24.700;2023-03-01T00:27:19;17.93;;;12.47;;
56343;SDS011;42245;42.058;24.700;2023-03-01T00:29:44;16.90;;;12.77;;
56343;SDS011;42245;42.058;24.700;2023-03-01T00:32:10;14.90;;;11.20;;
56343;SDS011;42245;42.058;24.700;2023-03-01T00:34:35;14.07;;;10.40;;
56343;SDS011;42245;42.058;24.700;2023-03-01T00:37:01;11.93;;;9.80;;
56343;SDS011;42245;42.058;24.700;2023-03-01T00:39:30;11.47;;;9.17;;
56343;SDS011;42245;42.058;24.700;2023-03-01T00:41:56;11.80;;;9.50;;
56343;SDS011;42245;42.058;24.700;2023-03-01T00:44:21;15.27;;;11.77;;
56343;SDS011;42245;42.058;24.700;2023-03-01T00:46:47;15.27;;;10.90;;
56343;SDS011;42245;42.058;24.700;2023-03-01T00:49:13;12.98;;;10.50;;
56343;SDS011;42245;42.058;24.700;2023-03-01T00:51:38;13.13;;;10.13;;
56343;SDS011;42245;42.058;24.700;2023-03-01T00:54:07;18.17;;;12.67;;
56343;SDS011;42245;42.058;24.700;2023-03-01T00:56:33;25.03;;;14.73;;
56343;SDS011;42245;42.058;24.700;2023-03-01T00:58:59;23.33;;;14.83;;
56343;SDS011;42245;42.058;24.700;2023-03-01T01:01:26;20.27;;;14.20;;
56343;SDS011;42245;42.058;24.700;2023-03-01T01:03:57;16.83;;;11.87;;
56343;SDS011;42245;42.058;24.700;2023-03-01T01:06:28;12.73;;;9.60;;
56343;SDS011;42245;42.058;24.700;2023-03-01T01:08:55;13.87;;;10.70;;
56343;SDS011;42245;42.058;24.700;2023-03-01T01:11:22;13.77;;;10.80;;
56343;SDS011;42245;42.058;24.700;2023-03-01T01:13:48;18.47;;;13.00;;
56343;SDS011;42245;42.058;24.700;2023-03-01T01:16:15;18.40;;;13.30;;
56343;SDS011;42245;42.058;24.700;2023-03-01T01:18:42;19.93;;;14.40;;
56343;SDS011;42245;42.058;24.700;2023-03-01T01:21:09;20.37;;;15.20;;
56343;SDS011;42245;42.058;24.700;2023-03-01T01:23:39;20.70;;;15.63;;
56343;SDS011;42245;42.058;24.700;2023-03-01T01:26:10;21.47;;;15.00;;
56343;SDS011;42245;42.058;24.700;2023-03-01T01:28:37;20.53;;;14.97;;
56343;SDS011;42245;42.058;24.700;2023-03-01T01:31:04;16.77;;;12.73;;
56343;SDS011;42245;42.058;24.700;2023-03-01T01:33:29;18.37;;;13.23;;
56343;SDS011;42245;42.058;24.700;2023-03-01T01:35:55;18.03;;;13.83;;
56343;SDS011;42245;42.058;24.700;2023-03-01T01:38:21;19.33;;;13.77;;
56343;SDS011;42245;42.058;24.700;2023-03-01T01:40:46;19.27;;;13.83;;
56343;SDS011;42245;42.058;24.700;2023-03-01T01:43:17;19.03;;;13.77;;
56343;SDS011;42245;42.058;24.700;2023-03-01T01:45:43;19.93;;;12.77;;
56343;SDS011;42245;42.058;24.700;2023-03-01T01:48:12;19.20;;;14.00;;
56343;SDS011;42245;42.058;24.700;2023-03-01T01:50:41;21.03;;;14.40;;
56343;SDS011;42245;42.058;24.700;2023-03-01T01:53:09;17.40;;;12.97;;
56343;SDS011;42245;42.058;24.700;2023-03-01T01:55:38;17.07;;;12.40;;
56343;SDS011;42245;42.058;24.700;2023-03-01T01:58:11;19.00;;;15.17;;
56343;SDS011;42245;42.058;24.700;2023-03-01T02:00:39;17.97;;;13.13;;
56343;SDS011;42245;42.058;24.700;2023-03-01T02:03:07;17.10;;;12.97;;
56343;SDS011;42245;42.058;24.700;2023-03-01T02:08:15;23.53;;;14.27;;
56343;SDS011;42245;42.058;24.700;2023-03-01T02:10:43;19.77;;;14.13;;
56343;SDS011;42245;42.058;24.700;2023-03-01T02:13:10;20.43;;;14.63;;
56343;SDS011;42245;42.058;24.700;2023-03-01T02:15:37;16.63;;;12.37;;
56343;SDS011;42245;42.058;24.700;2023-03-01T02:18:04;16.03;;;12.37;;
56343;SDS011;42245;42.058;24.700;2023-03-01T02:20:35;17.93;;;13.00;;
56343;SDS011;42245;42.058;24.700;2023-03-01T02:23:14;17.03;;;12.13;;
56343;SDS011;42245;42.058;24.700;2023-03-01T02:28:38;12.70;;;9.80;;
56343;SDS011;42245;42.058;24.700;2023-03-01T02:31:07;14.67;;;10.37;;
56343;SDS011;42245;42.058;24.700;2023-03-01T02:33:53;12.77;;;9.13;;
56343;SDS011;42245;42.058;24.700;2023-03-01T02:36:20;13.50;;;10.10;;
56343;SDS011;42245;42.058;24.700;2023-03-01T02:38:48;14.97;;;10.17;;
56343;SDS011;42245;42.058;24.700;2023-03-01T02:41:14;14.97;;;10.17;;
56343;SDS011;42245;42.058;24.700;2023-03-01T02:43:41;16.67;;;12.13;;
56343;SDS011;42245;42.058;24.700;2023-03-01T02:46:08;14.20;;;9.73;;
56343;SDS011;42245;42.058;24.700;2023-03-01T02:48:43;15.63;;;10.47;;
56343;SDS011;42245;42.058;24.700;2023-03-01T02:51:34;15.80;;;10.43;;
56343;SDS011;42245;42.058;24.700;2023-03-01T02:54:29;13.60;;;9.60;;
56343;SDS011;42245;42.058;24.700;2023-03-01T02:56:55;12.80;;;8.50;;
56343;SDS011;42245;42.058;24.700;2023-03-01T02:59:22;11.43;;;8.17;;
56343;SDS011;42245;42.058;24.700;2023-03-01T03:01:52;13.10;;;9.17;;
56343;SDS011;42245;42.058;24.700;2023-03-01T03:04:18;12.13;;;8.67;;
56343;SDS011;42245;42.058;24.700;2023-03-01T03:06:46;11.70;;;8.37;;
56343;SDS011;42245;42.058;24.700;2023-03-01T03:09:13;11.17;;;7.90;;
56343;SDS011;42245;42.058;24.700;2023-03-01T03:11:39;11.20;;;7.93;;
56343;SDS011;42245;42.058;24.700;2023-03-01T03:14:06;8.97;;;6.87;;
56343;SDS011;42245;42.058;24.700;2023-03-01T03:16:41;7.63;;;5.57;;
56343;SDS011;42245;42.058;24.700;2023-03-01T03:19:11;9.87;;;7.63;;
56343;SDS011;42245;42.058;24.700;2023-03-01T03:21:36;9.40;;;6.73;;
56343;SDS011;42245;42.058;24.700;2023-03-01T03:24:02;9.80;;;7.70;;
56343;SDS011;42245;42.058;24.700;2023-03-01T03:26:28;11.20;;;8.13;;
56343;SDS011;42245;42.058;24.700;2023-03-01T03:28:54;10.63;;;7.77;;
56343;SDS011;42245;42.058;24.700;2023-03-01T03:31:20;8.47;;;6.60;;
56343;SDS011;42245;42.058;24.700;2023-03-01T03:33:45;8.73;;;6.53;;
56343;SDS011;42245;42.058;24.700;2023-03-01T03:36:15;10.60;;;7.60;;
56343;SDS011;42245;42.058;24.700;2023-03-01T03:38:44;9.90;;;7.57;;
56343;SDS011;42245;42.058;24.700;2023-03-01T03:41:11;10.43;;;7.47;;
56343;SDS011;42245;42.058;24.700;2023-03-01T03:43:37;9.90;;;7.80;;
56343;SDS011;42245;42.058;24.700;2023-03-01T03:46:04;10.73;;;8.33;;
56343;SDS011;42245;42.058;24.700;2023-03-01T03:48:31;10.17;;;7.63;;
56343;SDS011;42245;42.058;24.700;2023-03-01T03:50:58;12.07;;;8.73;;
56343;SDS011;42245;42.058;24.700;2023-03-01T03:53:24;6.20;;;5.00;;
56343;SDS011;42245;42.058;24.700;2023-03-01T03:55:51;8.20;;;5.53;;
56343;SDS011;42245;42.058;24.700;2023-03-01T03:58:17;5.80;;;4.90;;
56343;SDS011;42245;42.058;24.700;2023-03-01T04:00:45;6.30;;;5.33;;
56343;SDS011;42245;42.058;24.700;2023-03-01T04:03:11;7.03;;;5.50;;
56343;SDS011;42245;42.058;24.700;2023-03-01T04:05:39;8.17;;;5.80;;
56343;SDS011;42245;42.058;24.700;2023-03-01T04:08:05;7.20;;;5.70;;
56343;SDS011;42245;42.058;24.700;2023-03-01T04:10:38;6.77;;;5.40;;
56343;SDS011;42245;42.058;24.700;2023-03-01T04:13:04;7.97;;;5.90;;
56343;SDS011;42245;42.058;24.700;2023-03-01T04:15:31;8.43;;;6.73;;
56343;SDS011;42245;42.058;24.700;2023-03-01T04:17:57;9.27;;;7.10;;
56343;SDS011;42245;42.058;24.700;2023-03-01T04:20:25;8.75;;;6.88;;
56343;SDS011;42245;42.058;24.700;2023-03-01T04:23:00;9.27;;;6.57;;
56343;SDS011;42245;42.058;24.700;2023-03-01T04:25:36;9.83;;;7.10;;
56343;SDS011;42245;42.058;24.700;2023-03-01T04:28:05;9.30;;;6.73;;
56343;SDS011;42245;42.058;24.700;2023-03-01T04:30:31;9.40;;;6.50;;
56343;SDS011;42245;42.058;24.700;2023-03-01T04:33:01;7.70;;;5.50;;
56343;SDS011;42245;42.058;24.700;2023-03-01T04:35:28;8.07;;;5.77;;
56343;SDS011;42245;42.058;24.700;2023-03-01T04:37:54;11.07;;;6.60;;
56343;SDS011;42245;42.058;24.700;2023-03-01T04:40:20;10.47;;;7.27;;
56343;SDS011;42245;42.058;24.700;2023-03-01T04:42:46;11.07;;;7.47;;
56343;SDS011;42245;42.058;24.700;2023-03-01T04:45:12;11.73;;;8.00;;
56343;SDS011;42245;42.058;24.700;2023-03-01T04:47:40;15.50;;;10.20;;
56343;SDS011;42245;42.058;24.700;2023-03-01T04:50:08;15.73;;;8.73;;
56343;SDS011;42245;42.058;24.700;2023-03-01T04:52:34;13.33;;;8.53;;
56343;SDS011;42245;42.058;24.700;2023-03-01T04:55:00;15.10;;;9.83;;
56343;SDS011;42245;42.058;24.700;2023-03-01T04:57:26;18.73;;;10.97;;
56343;SDS011;42245;42.058;24.700;2023-03-01T04:59:52;13.97;;;8.57;;
56343;SDS011;42245;42.058;24.700;2023-03-01T05:02:17;12.47;;;8.50;;
56343;SDS011;42245;42.058;24.700;2023-03-01T05:04:42;15.13;;;11.07;;
56343;SDS011;42245;42.058;24.700;2023-03-01T05:07:08;14.23;;;9.37;;
56343;SDS011;42245;42.058;24.700;2023-03-01T05:09:34;16.83;;;10.10;;
56343;SDS011;42245;42.058;24.700;2023-03-01T05:11:59;17.07;;;10.43;;
56343;SDS011;42245;42.058;24.700;2023-03-01T05:14:24;15.73;;;9.83;;
56343;SDS011;42245;42.058;24.700;2023-03-01T05:16:50;18.90;;;10.67;;
56343;SDS011;42245;42.058;24.700;2023-03-01T05:19:15;16.20;;;10.20;;
56343;SDS011;42245;42.058;24.700;2023-03-01T05:21:41;20.83;;;11.27;;
56343;SDS011;42245;42.058;24.700;2023-03-01T05:24:26;22.00;;;12.93;;
56343;SDS011;42245;42.058;24.700;2023-03-01T05:26:51;36.43;;;13.27;;
56343;SDS011;42245;42.058;24.700;2023-03-01T05:29:18;23.10;;;10.87;;
56343;SDS011;42245;42.058;24.700;2023-03-01T05:31:50;24.73;;;11.23;;
56343;SDS011;42245;42.058;24.700;2023-03-01T05:34:26;17.83;;;10.53;;
56343;SDS011;42245;42.058;24.700;2023-03-01T05:36:53;18.17;;;9.57;;
56343;SDS011;42245;42.058;24.700;2023-03-01T05:39:23;17.23;;;10.23;;
56343;SDS011;42245;42.058;24.700;2023-03-01T05:41:53;17.13;;;9.30;;
56343;SDS011;42245;42.058;24.700;2023-03-01T05:44:22;17.63;;;10.07;;
56343;SDS011;42245;42.058;24.700;2023-03-01T05:46:48;17.03;;;9.47;;
56343;SDS011;42245;42.058;24.700;2023-03-01T05:49:14;15.33;;;9.10;;
56343;SDS011;42245;42.058;24.700;2023-03-01T05:51:40;15.40;;;9.90;;
56343;SDS011;42245;42.058;24.700;2023-03-01T05:54:07;15.40;;;9.70;;
56343;SDS011;42245;42.058;24.700;2023-03-01T05:56:34;15.67;;;10.03;;
56343;SDS011;42245;42.058;24.700;2023-03-01T05:59:00;18.10;;;11.23;;
56343;SDS011;42245;42.058;24.700;2023-03-01T06:01:26;16.90;;;10.20;;
56343;SDS011;42245;42.058;24.700;2023-03-01T06:03:51;14.77;;;9.43;;
56343;SDS011;42245;42.058;24.700;2023-03-01T06:06:17;19.17;;;11.23;;
56343;SDS011;42245;42.058;24.700;2023-03-01T06:08:43;19.47;;;10.33;;
56343;SDS011;42245;42.058;24.700;2023-03-01T06:11:09;24.80;;;11.30;;
56343;SDS011;42245;42.058;24.700;2023-03-01T06:13:34;24.03;;;12.30;;
56343;SDS011;42245;42.058;24.700;2023-03-01T06:16:00;29.73;;;11.47;;
56343;SDS011;42245;42.058;24.700;2023-03-01T06:18:25;20.87;;;12.00;;
56343;SDS011;42245;42.058;24.700;2023-03-01T06:20:54;16.70;;;10.30;;
56343;SDS011;42245;42.058;24.700;2023-03-01T06:23:20;15.40;;;10.00;;
56343;SDS011;42245;42.058;24.700;2023-03-01T06:25:46;13.73;;;8.63;;
56343;SDS011;42245;42.058;24.700;2023-03-01T06:28:11;13.93;;;8.87;;
56343;SDS011;42245;42.058;24.700;2023-03-01T06:30:36;15.57;;;9.87;;
56343;SDS011;42245;42.058;24.700;2023-03-01T06:33:02;15.73;;;9.67;;
56343;SDS011;42245;42.058;24.700;2023-03-01T06:35:30;17.20;;;10.17;;
56343;SDS011;42245;42.058;24.700;2023-03-01T06:37:56;12.70;;;8.43;;
56343;SDS011;42245;42.058;24.700;2023-03-01T06:40:22;12.23;;;8.33;;
56343;SDS011;42245;42.058;24.700;2023-03-01T06:42:49;15.83;;;9.83;;
56343;SDS011;42245;42.058;24.700;2023-03-01T06:45:15;14.97;;;9.47;;
56343;SDS011;42245;42.058;24.700;2023-03-01T06:47:41;15.03;;;10.07;;
56343;SDS011;42245;42.058;24.700;2023-03-01T06:50:06;16.70;;;10.93;;
56343;SDS011;42245;42.058;24.700;2023-03-01T06:52:32;14.23;;;9.73;;
56343;SDS011;42245;42.058;24.700;2023-03-01T06:54:57;14.33;;;9.73;;
56343;SDS011;42245;42.058;24.700;2023-03-01T06:57:23;14.60;;;9.77;;
56343;SDS011;42245;42.058;24.700;2023-03-01T06:59:48;18.30;;;10.80;;
56343;SDS011;42245;42.058;24.700;2023-03-01T07:02:14;16.50;;;11.33;;
56343;SDS011;42245;42.058;24.700;2023-03-01T07:04:40;16.40;;;11.53;;
56343;SDS011;42245;42.058;24.700;2023-03-01T07:07:06;17.13;;;10.43;;
56343;SDS011;42245;42.058;24.700;2023-03-01T07:09:31;11.50;;;7.57;;
56343;SDS011;42245;42.058;24.700;2023-03-01T07:11:57;10.47;;;7.40;;
56343;SDS011;42245;42.058;24.700;2023-03-01T07:14:22;7.83;;;6.17;;
56343;SDS011;42245;42.058;24.700;2023-03-01T07:16:51;8.53;;;6.23;;
56343;SDS011;42245;42.058;24.700;2023-03-01T07:19:17;9.20;;;6.30;;
56343;SDS011;42245;42.058;24.700;2023-03-01T07:21:43;6.87;;;5.23;;
56343;SDS011;42245;42.058;24.700;2023-03-01T07:24:09;7.10;;;5.00;;
56343;SDS011;42245;42.058;24.700;2023-03-01T07:26:34;6.40;;;4.53;;
56343;SDS011;42245;42.058;24.700;2023-03-01T07:29:00;7.07;;;4.63;;
56343;SDS011;42245;42.058;24.700;2023-03-01T07:31:26;4.33;;;3.50;;
56343;SDS011;42245;42.058;24.700;2023-03-01T07:33:54;3.30;;;2.97;;
56343;SDS011;42245;42.058;24.700;2023-03-01T07:36:20;4.23;;;3.30;;
56343;SDS011;42245;42.058;24.700;2023-03-01T07:38:46;5.20;;;3.00;;
56343;SDS011;42245;42.058;24.700;2023-03-01T07:41:11;4.90;;;3.10;;
56343;SDS011;42245;42.058;24.700;2023-03-01T07:43:37;3.70;;;3.00;;
56343;SDS011;42245;42.058;24.700;2023-03-01T07:46:02;7.87;;;3.90;;
56343;SDS011;42245;42.058;24.700;2023-03-01T07:48:28;5.03;;;3.10;;
56343;SDS011;42245;42.058;24.700;2023-03-01T07:50:57;4.03;;;3.10;;
56343;SDS011;42245;42.058;24.700;2023-03-01T07:53:23;5.27;;;2.67;;
56343;SDS011;42245;42.058;24.700;2023-03-01T07:55:49;6.10;;;2.50;;
56343;SDS011;42245;42.058;24.700;2023-03-01T07:58:15;3.20;;;2.60;;
56343;SDS011;42245;42.058;24.700;2023-03-01T08:00:40;4.10;;;2.77;;
56343;SDS011;42245;42.058;24.700;2023-03-01T08:03:06;3.53;;;2.20;;
56343;SDS011;42245;42.058;24.700;2023-03-01T08:05:31;3.50;;;2.20;;
56343;SDS011;42245;42.058;24.700;2023-03-01T08:07:57;4.77;;;2.50;;
56343;SDS011;42245;42.058;24.700;2023-03-01T08:10:22;5.73;;;2.97;;
56343;SDS011;42245;42.058;24.700;2023-03-01T08:12:50;3.93;;;3.13;;
56343;SDS011;42245;42.058;24.700;2023-03-01T08:15:16;5.23;;;3.37;;
56343;SDS011;42245;42.058;24.700;2023-03-01T08:17:43;4.70;;;3.10;;
56343;SDS011;42245;42.058;24.700;2023-03-01T08:20:09;5.87;;;3.30;;
56343;SDS011;42245;42.058;24.700;2023-03-01T08:22:37;6.30;;;4.27;;
56343;SDS011;42245;42.058;24.700;2023-03-01T08:25:02;6.77;;;4.97;;
56343;SDS011;42245;42.058;24.700;2023-03-01T08:27:28;9.03;;;6.00;;
56343;SDS011;42245;42.058;24.700;2023-03-01T08:29:53;8.73;;;6.00;;
56343;SDS011;42245;42.058;24.700;2023-03-01T08:32:19;8.37;;;5.67;;
56343;SDS011;42245;42.058;24.700;2023-03-01T08:34:46;9.90;;;6.53;;
56343;SDS011;42245;42.058;24.700;2023-03-01T08:37:12;6.20;;;4.73;;
56343;SDS011;42245;42.058;24.700;2023-03-01T08:39:37;8.13;;;5.70;;
56343;SDS011;42245;42.058;24.700;2023-03-01T08:42:03;8.00;;;5.40;;
56343;SDS011;42245;42.058;24.700;2023-03-01T08:44:28;7.53;;;4.93;;
56343;SDS011;42245;42.058;24.700;2023-03-01T08:46:54;10.80;;;6.93;;
56343;SDS011;42245;42.058;24.700;2023-03-01T08:49:21;5.33;;;4.13;;
56343;SDS011;42245;42.058;24.700;2023-03-01T08:51:46;6.00;;;4.50;;
56343;SDS011;42245;42.058;24.700;2023-03-01T08:54:13;5.87;;;4.40;;
56343;SDS011;42245;42.058;24.700;2023-03-01T08:56:43;8.73;;;5.17;;
56343;SDS011;42245;42.058;24.700;2023-03-01T08:59:09;5.83;;;4.57;;
56343;SDS011;42245;42.058;24.700;2023-03-01T09:01:35;8.27;;;5.90;;
56343;SDS011;42245;42.058;24.700;2023-03-01T09:04:02;8.30;;;5.07;;
56343;SDS011;42245;42.058;24.700;2023-03-01T09:06:35;7.13;;;5.87;;
56343;SDS011;42245;42.058;24.700;2023-03-01T09:09:01;10.70;;;6.07;;
56343;SDS011;42245;42.058;24.700;2023-03-01T09:11:27;12.52;;;8.88;;
56343;SDS011;42245;42.058;24.700;2023-03-01T09:13:53;13.00;;;10.23;;
56343;SDS011;42245;42.058;24.700;2023-03-01T09:16:19;10.23;;;7.65;;
56343;SDS011;42245;42.058;24.700;2023-03-01T09:18:53;8.93;;;7.47;;
56343;SDS011;42245;42.058;24.700;2023-03-01T09:21:20;12.67;;;10.00;;
56343;SDS011;42245;42.058;24.700;2023-03-01T09:23:48;11.77;;;8.60;;
56343;SDS011;42245;42.058;24.700;2023-03-01T09:26:18;9.77;;;8.07;;
56343;SDS011;42245;42.058;24.700;2023-03-01T09:28:46;10.07;;;6.63;;
56343;SDS011;42245;42.058;24.700;2023-03-01T09:31:12;8.80;;;6.00;;
56343;SDS011;42245;42.058;24.700;2023-03-01T09:33:39;6.93;;;5.07;;
56343;SDS011;42245;42.058;24.700;2023-03-01T09:36:06;6.13;;;5.07;;
56343;SDS011;42245;42.058;24.700;2023-03-01T09:38:39;6.87;;;5.30;;
56343;SDS011;42245;42.058;24.700;2023-03-01T09:46:49;8.40;;;5.27;;
56343;SDS011;42245;42.058;24.700;2023-03-01T09:49:35;7.20;;;5.10;;
56343;SDS011;42245;42.058;24.700;2023-03-01T09:52:03;9.73;;;6.80;;
56343;SDS011;42245;42.058;24.700;2023-03-01T09:54:37;12.07;;;6.87;;
56343;SDS011;42245;42.058;24.700;2023-03-01T09:57:19;9.03;;;6.53;;
56343;SDS011;42245;42.058;24.700;2023-03-01T10:00:00;12.10;;;5.73;;
56343;SDS011;42245;42.058;24.700;2023-03-01T10:02:41;10.63;;;4.60;;
56343;SDS011;42245;42.058;24.700;2023-03-01T10:11:22;7.73;;;5.17;;
56343;SDS011;42245;42.058;24.700;2023-03-01T10:13:55;8.18;;;4.03;;
56343;SDS011;42245;42.058;24.700;2023-03-01T10:16:40;7.80;;;4.18;;
56343;SDS011;42245;42.058;24.700;2023-03-01T10:22:13;8.50;;;5.00;;
56343;SDS011;42245;42.058;24.700;2023-03-01T10:24:47;9.17;;;6.10;;
56343;SDS011;42245;42.058;24.700;2023-03-01T10:27:23;9.53;;;6.17;;
56343;SDS011;42245;42.058;24.700;2023-03-01T10:32:21;8.83;;;5.17;;
56343;SDS011;42245;42.058;24.700;2023-03-01T10:34:47;8.55;;;5.78;;
56343;SDS011;42245;42.058;24.700;2023-03-01T10:39:55;6.67;;;5.37;;
56343;SDS011;42245;42.058;24.700;2023-03-01T10:43:06;10.30;;;7.27;;
56343;SDS011;42245;42.058;24.700;2023-03-01T10:45:36;9.97;;;7.40;;
56343;SDS011;42245;42.058;24.700;2023-03-01T10:50:44;9.33;;;6.00;;
56343;SDS011;42245;42.058;24.700;2023-03-01T10:53:23;7.53;;;5.32;;
56343;SDS011;42245;42.058;24.700;2023-03-01T10:55:59;7.23;;;5.80;;
56343;SDS011;42245;42.058;24.700;2023-03-01T10:58:25;6.93;;;5.00;;
56343;SDS011;42245;42.058;24.700;2023-03-01T11:00:57;9.57;;;5.60;;
56343;SDS011;42245;42.058;24.700;2023-03-01T11:03:31;5.70;;;4.65;;
56343;SDS011;42245;42.058;24.700;2023-03-01T11:05:59;5.82;;;4.47;;
56343;SDS011;42245;42.058;24.700;2023-03-01T11:13:52;10.97;;;7.10;;
56343;SDS011;42245;42.058;24.700;2023-03-01T11:16:24;7.73;;;5.67;;
56343;SDS011;42245;42.058;24.700;2023-03-01T11:19:04;9.40;;;6.40;;
56343;SDS011;42245;42.058;24.700;2023-03-01T11:21:39;7.60;;;6.23;;
56343;SDS011;42245;42.058;24.700;2023-03-01T11:24:09;10.90;;;7.57;;
56343;SDS011;42245;42.058;24.700;2023-03-01T11:26:36;12.27;;;8.32;;
56343;SDS011;42245;42.058;24.700;2023-03-01T11:29:05;16.90;;;11.20;;
56343;SDS011;42245;42.058;24.700;2023-03-01T11:31:46;14.73;;;8.65;;
56343;SDS011;42245;42.058;24.700;2023-03-01T11:34:14;9.88;;;7.25;;
56343;SDS011;42245;42.058;24.700;2023-03-01T11:36:52;12.35;;;8.50;;
56343;SDS011;42245;42.058;24.700;2023-03-01T11:44:48;10.18;;;7.85;;
56343;SDS011;42245;42.058;24.700;2023-03-01T11:47:22;9.60;;;7.45;;
56343;SDS011;42245;42.058;24.700;2023-03-01T11:52:47;8.30;;;6.70;;
56343;SDS011;42245;42.058;24.700;2023-03-01T11:58:04;9.35;;;7.57;;
56343;SDS011;42245;42.058;24.700;2023-03-01T12:06:37;9.18;;;7.10;;
56343;SDS011;42245;42.058;24.700;2023-03-01T12:09:14;9.63;;;7.00;;
56343;SDS011;42245;42.058;24.700;2023-03-01T12:25:14;11.75;;;8.60;;
56343;SDS011;42245;42.058;24.700;2023-03-01T12:30:22;16.83;;;11.10;;
56343;SDS011;42245;42.058;24.700;2023-03-01T12:39:01;12.43;;;10.13;;
56343;SDS011;42245;42.058;24.700;2023-03-01T12:43:55;12.82;;;9.95;;
56343;SDS011;42245;42.058;24.700;2023-03-01T12:49:16;18.65;;;13.18;;
56343;SDS011;42245;42.058;24.700;2023-03-01T12:52:09;26.60;;;15.85;;
56343;SDS011;42245;42.058;24.700;2023-03-01T12:54:36;37.92;;;21.20;;
56343;SDS011;42245;42.058;24.700;2023-03-01T12:57:11;28.40;;;17.42;;
56343;SDS011;42245;42.058;24.700;2023-03-01T13:02:35;24.35;;;17.08;;
56343;SDS011;42245;42.058;24.700;2023-03-01T13:08:00;22.60;;;15.57;;
56343;SDS011;42245;42.058;24.700;2023-03-01T13:10:35;28.40;;;19.00;;
56343;SDS011;42245;42.058;24.700;2023-03-01T13:15:37;34.42;;;21.73;;
56343;SDS011;42245;42.058;24.700;2023-03-01T13:20:46;47.53;;;25.65;;
56343;SDS011;42245;42.058;24.700;2023-03-01T13:30:59;41.20;;;28.42;;
56343;SDS011;42245;42.058;24.700;2023-03-01T13:33:44;31.05;;;22.30;;
56343;SDS011;42245;42.058;24.700;2023-03-01T13:36:13;21.88;;;16.08;;
56343;SDS011;42245;42.058;24.700;2023-03-01T13:39:01;19.35;;;14.43;;
56343;SDS011;42245;42.058;24.700;2023-03-01T13:57:42;22.45;;;15.20;;
56343;SDS011;42245;42.058;24.700;2023-03-01T14:00:26;19.35;;;14.13;;
56343;SDS011;42245;42.058;24.700;2023-03-01T14:05:43;25.83;;;19.17;;
56343;SDS011;42245;42.058;24.700;2023-03-01T14:08:22;28.88;;;17.98;;
56343;SDS011;42245;42.058;24.700;2023-03-01T14:10:53;21.23;;;15.45;;
56343;SDS011;42245;42.058;24.700;2023-03-01T14:13:26;24.10;;;15.40;;
56343;SDS011;42245;42.058;24.700;2023-03-01T14:19:15;19.27;;;14.45;;
56343;SDS011;42245;42.058;24.700;2023-03-01T14:21:49;23.05;;;14.20;;
56343;SDS011;42245;42.058;24.700;2023-03-01T14:24:30;19.33;;;14.07;;
56343;SDS011;42245;42.058;24.700;2023-03-01T14:26:58;19.20;;;13.82;;
56343;SDS011;42245;42.058;24.700;2023-03-01T14:29:38;26.25;;;17.25;;
56343;SDS011;42245;42.058;24.700;2023-03-01T14:32:38;25.40;;;17.75;;
56343;SDS011;42245;42.058;24.700;2023-03-01T14:34:57;26.60;;;17.83;;
56343;SDS011;42245;42.058;24.700;2023-03-01T14:37:28;18.75;;;14.35;;
56343;SDS011;42245;42.058;24.700;2023-03-01T14:39:56;22.85;;;17.27;;
56343;SDS011;42245;42.058;24.700;2023-03-01T14:42:23;24.77;;;17.33;;
56343;SDS011;42245;42.058;24.700;2023-03-01T14:44:52;25.45;;;17.23;;
56343;SDS011;42245;42.058;24.700;2023-03-01T14:47:23;29.45;;;18.90;;
56343;SDS011;42245;42.058;24.700;2023-03-01T14:49:54;29.77;;;18.90;;
56343;SDS011;42245;42.058;24.700;2023-03-01T14:52:23;29.38;;;19.23;;
56343;SDS011;42245;42.058;24.700;2023-03-01T14:54:54;24.25;;;17.63;;
56343;SDS011;42245;42.058;24.700;2023-03-01T14:57:23;21.67;;;16.35;;
56343;SDS011;42245;42.058;24.700;2023-03-01T14:59:54;20.70;;;16.52;;
56343;SDS011;42245;42.058;24.700;2023-03-01T15:02:29;24.25;;;16.52;;
56343;SDS011;42245;42.058;24.700;2023-03-01T15:04:56;22.27;;;15.85;;
56343;SDS011;42245;42.058;24.700;2023-03-01T15:07:26;20.98;;;15.65;;
56343;SDS011;42245;42.058;24.700;2023-03-01T15:09:55;22.58;;;15.30;;
56343;SDS011;42245;42.058;24.700;2023-03-01T15:14:52;23.17;;;16.55;;
56343;SDS011;42245;42.058;24.700;2023-03-01T15:17:30;22.58;;;16.40;;
56343;SDS011;42245;42.058;24.700;2023-03-01T15:19:56;18.70;;;14.18;;
56343;SDS011;42245;42.058;24.700;2023-03-01T15:22:22;24.08;;;17.52;;
56343;SDS011;42245;42.058;24.700;2023-03-01T15:24:48;25.98;;;17.67;;
56343;SDS011;42245;42.058;24.700;2023-03-01T15:27:19;28.55;;;19.45;;
56343;SDS011;42245;42.058;24.700;2023-03-01T15:29:50;27.85;;;18.70;;
56343;SDS011;42245;42.058;24.700;2023-03-01T15:35:00;29.90;;;21.58;;
56343;SDS011;42245;42.058;24.700;2023-03-01T15:42:56;42.95;;;25.35;;
56343;SDS011;42245;42.058;24.700;2023-03-01T15:45:26;33.22;;;20.73;;
56343;SDS011;42245;42.058;24.700;2023-03-01T15:48:04;29.25;;;19.98;;
56343;SDS011;42245;42.058;24.700;2023-03-01T15:50:34;35.38;;;22.00;;
56343;SDS011;42245;42.058;24.700;2023-03-01T15:53:03;42.73;;;27.47;;
56343;SDS011;42245;42.058;24.700;2023-03-01T15:55:32;35.15;;;23.60;;
56343;SDS011;42245;42.058;24.700;2023-03-01T15:58:05;34.03;;;23.42;;
56343;SDS011;42245;42.058;24.700;2023-03-01T16:00:35;35.42;;;23.35;;
56343;SDS011;42245;42.058;24.700;2023-03-01T16:03:00;34.80;;;19.70;;
56343;SDS011;42245;42.058;24.700;2023-03-01T16:05:27;31.27;;;20.50;;
56343;SDS011;42245;42.058;24.700;2023-03-01T16:07:55;28.15;;;19.65;;
56343;SDS011;42245;42.058;24.700;2023-03-01T16:10:21;24.33;;;16.65;;
56343;SDS011;42245;42.058;24.700;2023-03-01T16:12:47;29.50;;;20.17;;
56343;SDS011;42245;42.058;24.700;2023-03-01T16:15:26;27.20;;;18.33;;
56343;SDS011;42245;42.058;24.700;2023-03-01T16:17:56;28.73;;;20.08;;
56343;SDS011;42245;42.058;24.700;2023-03-01T16:20:23;43.23;;;28.53;;
56343;SDS011;42245;42.058;24.700;2023-03-01T16:22:49;29.77;;;19.98;;
56343;SDS011;42245;42.058;24.700;2023-03-01T16:25:16;28.67;;;19.07;;
56343;SDS011;42245;42.058;24.700;2023-03-01T16:27:43;31.00;;;21.13;;
56343;SDS011;42245;42.058;24.700;2023-03-01T16:30:10;29.13;;;19.17;;
56343;SDS011;42245;42.058;24.700;2023-03-01T16:32:40;32.73;;;21.53;;
56343;SDS011;42245;42.058;24.700;2023-03-01T16:35:06;38.47;;;25.37;;
56343;SDS011;42245;42.058;24.700;2023-03-01T16:37:33;34.42;;;22.10;;